Time;durP1;ratioP1;P1;durP2;ratioP2;P2;SDS_P1;SDS_P2;PMS_P1;PMS_P2;Temp;Humidity;BMP_temperature;BMP_pressure;BME280_temperature;BME280_humidity;BME280_pressure;Samples;Min_cycle;Max_cycle;Signal;HPM_P1;HPM_P2
2021/12/15 00:01:16;;;;;;;80.07;32.33;;;2.50;99.90;;;;;;4993517;28;20172;-74
2021/12/15 00:03:42;;;;;;;80.33;33.37;;;2.40;99.90;;;;;;4993674;28;20176;-74
2021/12/15 00:06:17;;;;;;;98.80;39.23;;;2.40;99.90;;;;;;4992999;28;20246;-74
2021/12/15 00:08:46;;;;;;;91.43;38.17;;;2.40;99.90;;;;;;4982298;28;20236;-74
2021/12/15 00:11:14;;;;;;;84.37;33.93;;;2.40;99.90;;;;;;4973935;28;20662;-74
2021/12/15 00:13:41;;;;;;;77.17;32.50;;;2.40;99.90;;;;;;4973738;28;20188;-74
2021/12/15 00:16:09;;;;;;;80.57;33.53;;;2.40;99.90;;;;;;4992499;28;20565;-74
2021/12/15 00:18:41;;;;;;;83.20;34.07;;;2.40;99.90;;;;;;4996225;28;20685;-74
2021/12/15 00:21:08;;;;;;;94.33;34.90;;;2.40;99.90;;;;;;4979335;28;20672;-74
2021/12/15 00:23:35;;;;;;;91.07;35.03;;;2.40;99.90;;;;;;4996838;28;20195;-74
2021/12/15 00:26:00;;;;;;;97.33;35.57;;;2.40;99.90;;;;;;4996681;28;20561;-74
2021/12/15 00:28:26;;;;;;;88.27;33.50;;;2.40;99.90;;;;;;4978951;28;20254;-74
2021/12/15 00:30:52;;;;;;;85.00;36.20;;;2.60;99.90;;;;;;4996599;28;20172;-74
2021/12/15 00:33:17;;;;;;;89.67;34.77;;;2.60;99.90;;;;;;4996652;28;20206;-74
2021/12/15 00:35:43;;;;;;;83.30;33.03;;;2.70;99.90;;;;;;4979672;28;20276;-75
2021/12/15 00:38:09;;;;;;;91.23;35.83;;;2.80;99.90;;;;;;4979059;28;20178;-74
2021/12/15 00:40:34;;;;;;;77.60;32.93;;;2.80;99.90;;;;;;4996494;28;20258;-74
2021/12/15 00:43:02;;;;;;;80.57;33.07;;;2.80;99.90;;;;;;4979260;28;20180;-75
2021/12/15 00:45:28;;;;;;;83.80;33.57;;;2.80;99.90;;;;;;4994145;28;20172;-74
2021/12/15 00:47:54;;;;;;;91.20;34.03;;;2.90;99.90;;;;;;4994072;28;20200;-74
2021/12/15 00:50:23;;;;;;;89.00;33.97;;;2.90;99.90;;;;;;4996194;28;20731;-74
2021/12/15 00:52:48;;;;;;;95.40;35.83;;;3.00;99.90;;;;;;4996053;28;20185;-74
2021/12/15 00:55:18;;;;;;;94.87;35.53;;;2.90;99.90;;;;;;4998989;28;20607;-74
2021/12/15 00:57:45;;;;;;;98.63;35.37;;;3.00;99.90;;;;;;4995929;28;20210;-74
2021/12/15 01:00:16;;;;;;;96.77;35.90;;;2.90;99.90;;;;;;4978662;28;20645;-74
2021/12/15 01:02:42;;;;;;;86.47;35.27;;;2.90;99.90;;;;;;4978658;28;20172;-74
2021/12/15 01:05:09;;;;;;;88.40;34.93;;;2.90;99.90;;;;;;4995927;28;20173;-76
2021/12/15 01:07:36;;;;;;;94.37;36.50;;;2.90;99.90;;;;;;4995437;28;20203;-74
2021/12/15 01:10:04;;;;;;;91.03;35.27;;;3.00;99.90;;;;;;4996014;28;20176;-74
2021/12/15 01:21:10;;;;;;;107.63;37.67;;;2.70;99.90;;;;;;4995951;28;20202;-76
2021/12/15 01:23:35;;;;;;;116.27;38.67;;;2.60;99.90;;;;;;4995745;28;20179;-75
2021/12/15 01:26:08;;;;;;;117.87;39.27;;;2.60;99.90;;;;;;4978159;28;20693;-74
2021/12/15 01:28:34;;;;;;;129.17;40.27;;;2.60;99.90;;;;;;4995056;28;20180;-74
2021/12/15 01:31:01;;;;;;;130.70;39.03;;;2.60;99.90;;;;;;4995465;28;20259;-74
2021/12/15 01:33:28;;;;;;;128.80;39.50;;;2.60;99.90;;;;;;4995616;28;20203;-74
2021/12/15 01:35:55;;;;;;;131.63;40.87;;;2.60;99.90;;;;;;4995425;28;20199;-74
2021/12/15 01:38:26;;;;;;;123.63;40.37;;;2.60;99.90;;;;;;4995347;28;20180;-74
2021/12/15 01:40:53;;;;;;;131.63;40.23;;;2.50;99.90;;;;;;4977971;28;20179;-74
2021/12/15 01:43:39;;;;;;;134.17;39.57;;;2.60;99.90;;;;;;4995098;28;20175;-74
2021/12/15 01:49:05;;;;;;;114.07;38.23;;;2.50;99.90;;;;;;4984021;28;20310;-74
2021/12/15 01:51:31;;;;;;;100.40;37.17;;;2.60;99.90;;;;;;4995234;28;20183;-75
2021/12/15 01:53:57;;;;;;;88.83;33.70;;;2.70;99.90;;;;;;4977639;28;20266;-74
2021/12/15 01:56:23;;;;;;;79.53;30.73;;;2.80;99.90;;;;;;4977440;28;20200;-74
2021/12/15 01:58:49;;;;;;;100.97;35.57;;;2.90;99.90;;;;;;4977397;28;20694;-75
2021/12/15 02:01:15;;;;;;;92.80;35.10;;;2.90;99.90;;;;;;4995315;28;20176;-74
2021/12/15 02:03:42;;;;;;;104.03;35.47;;;2.90;99.90;;;;;;4994956;28;20686;-74
2021/12/15 02:06:10;;;;;;;109.33;38.77;;;2.90;99.90;;;;;;4994921;28;20231;-74
2021/12/15 02:08:37;;;;;;;107.17;38.83;;;2.80;99.90;;;;;;4976898;28;20176;-75
2021/12/15 02:11:03;;;;;;;102.97;35.60;;;2.80;99.90;;;;;;4994821;28;20277;-74
2021/12/15 02:13:30;;;;;;;104.13;35.27;;;2.80;99.90;;;;;;4994637;28;20291;-74
2021/12/15 02:15:58;;;;;;;112.70;37.07;;;2.70;99.90;;;;;;4994917;28;20200;-74
2021/12/15 02:18:31;;;;;;;105.83;37.70;;;2.70;99.90;;;;;;4994545;28;20176;-75
2021/12/15 02:21:11;;;;;;;113.43;39.73;;;2.80;99.90;;;;;;4977221;28;20210;-74
2021/12/15 02:23:45;;;;;;;121.37;39.87;;;2.80;99.90;;;;;;4994736;28;20226;-74
2021/12/15 02:26:18;;;;;;;118.13;39.00;;;2.80;99.90;;;;;;4977091;28;20199;-74
2021/12/15 02:28:56;;;;;;;119.70;39.67;;;2.80;99.90;;;;;;4976950;28;20179;-74
2021/12/15 02:37:20;;;;;;;116.50;38.50;;;2.80;99.90;;;;;;4979721;28;20199;-74
2021/12/15 02:39:55;;;;;;;124.00;40.07;;;2.80;99.90;;;;;;4993609;28;20183;-74
2021/12/15 02:42:24;;;;;;;128.97;39.87;;;2.80;99.90;;;;;;4976640;28;20198;-74
2021/12/15 02:44:50;;;;;;;129.67;39.00;;;2.80;99.90;;;;;;4995079;28;20187;-74
2021/12/15 02:47:21;;;;;;;105.73;36.70;;;2.80;99.90;;;;;;4973278;28;20218;-74
2021/12/15 02:49:47;;;;;;;111.70;37.97;;;2.90;99.90;;;;;;4995563;28;20248;-74
2021/12/15 02:52:13;;;;;;;107.60;37.37;;;2.90;99.90;;;;;;4994104;28;20184;-74
2021/12/15 02:54:39;;;;;;;106.60;37.33;;;2.90;99.90;;;;;;4994011;28;20725;-74
2021/12/15 02:57:10;;;;;;;118.60;37.90;;;3.00;99.90;;;;;;4993850;28;20199;-74
2021/12/15 03:00:03;;;;;;;96.60;35.80;;;3.00;99.90;;;;;;4976530;28;20678;-73
2021/12/15 03:05:10;;;;;;;96.17;34.77;;;3.10;99.90;;;;;;4994296;28;20180;-74
2021/12/15 03:07:51;;;;;;;87.93;34.30;;;3.20;99.90;;;;;;4994097;28;20254;-74
2021/12/15 03:15:49;;;;;;;77.87;31.67;;;3.20;99.90;;;;;;4993708;28;20218;-74
2021/12/15 03:18:19;;;;;;;90.13;35.97;;;3.30;99.90;;;;;;4993814;28;20592;-74
2021/12/15 03:21:08;;;;;;;87.00;34.83;;;3.20;99.90;;;;;;4997451;28;20196;-74
2021/12/15 03:23:49;;;;;;;76.37;32.40;;;3.20;99.90;;;;;;5000652;28;20713;-74
2021/12/15 03:26:24;;;;;;;85.10;32.70;;;3.30;99.90;;;;;;4988828;28;20228;-74
2021/12/15 03:37:30;;;;;;;71.47;29.77;;;3.20;99.90;;;;;;4993167;28;20203;-74
2021/12/15 03:40:05;;;;;;;72.10;30.73;;;3.30;99.90;;;;;;4992960;28;20208;-74
2021/12/15 03:42:41;;;;;;;68.30;29.90;;;3.20;99.90;;;;;;4975958;28;20178;-74
2021/12/15 03:45:12;;;;;;;66.97;29.37;;;3.30;99.90;;;;;;4976281;28;20262;-74
2021/12/15 03:47:43;;;;;;;79.67;31.83;;;3.20;99.90;;;;;;4993405;28;20585;-74
2021/12/15 03:50:11;;;;;;;77.50;32.33;;;3.30;99.90;;;;;;4993757;28;20179;-74
2021/12/15 03:52:37;;;;;;;67.87;29.07;;;3.20;99.90;;;;;;4997068;28;20717;-74
2021/12/15 03:55:05;;;;;;;76.23;30.70;;;3.20;99.90;;;;;;4997329;28;20187;-74
2021/12/15 03:57:31;;;;;;;67.37;29.13;;;3.20;99.90;;;;;;4979829;28;20275;-74
2021/12/15 03:59:57;;;;;;;70.63;29.87;;;3.20;99.90;;;;;;4997099;28;20230;-74
2021/12/15 04:02:24;;;;;;;68.73;29.90;;;3.20;99.90;;;;;;4997266;28;20540;-75
2021/12/15 04:04:50;;;;;;;71.50;29.90;;;3.10;99.90;;;;;;4997328;28;20188;-74
2021/12/15 04:07:19;;;;;;;63.63;28.13;;;3.20;99.90;;;;;;4982671;28;20565;-75
2021/12/15 04:09:45;;;;;;;66.83;29.50;;;3.20;99.90;;;;;;4977066;28;20660;-74
2021/12/15 04:12:13;;;;;;;68.00;28.07;;;3.20;99.90;;;;;;4978122;28;20232;-74
2021/12/15 04:14:53;;;;;;;66.43;28.40;;;3.20;99.90;;;;;;4965734;28;20184;-74
2021/12/15 04:17:29;;;;;;;66.00;28.10;;;3.30;99.90;;;;;;4981770;28;20732;-74
2021/12/15 04:20:00;;;;;;;66.23;27.77;;;3.30;99.90;;;;;;4982540;28;20200;-74
2021/12/15 04:22:26;;;;;;;61.13;26.73;;;3.30;99.90;;;;;;4993288;28;20234;-74
2021/12/15 04:24:53;;;;;;;61.30;27.20;;;3.30;99.90;;;;;;4995559;28;20173;-74
2021/12/15 04:27:20;;;;;;;63.20;27.20;;;3.30;99.90;;;;;;4995109;28;20192;-74
2021/12/15 04:29:48;;;;;;;65.27;27.60;;;3.30;99.90;;;;;;4995425;28;20270;-74
2021/12/15 04:32:32;;;;;;;58.17;27.30;;;3.30;99.90;;;;;;4995273;28;20175;-74
2021/12/15 04:35:01;;;;;;;62.27;28.20;;;3.20;99.90;;;;;;4995073;28;20245;-74
2021/12/15 04:37:27;;;;;;;70.10;29.60;;;3.30;99.90;;;;;;4977695;28;20205;-74
2021/12/15 04:39:52;;;;;;;62.77;28.93;;;3.30;99.90;;;;;;4977705;28;20254;-74
2021/12/15 04:42:21;;;;;;;68.67;29.50;;;3.30;99.90;;;;;;4994838;28;20172;-74
2021/12/15 04:44:47;;;;;;;61.30;28.00;;;3.30;99.90;;;;;;4994660;28;20265;-74
2021/12/15 04:47:14;;;;;;;64.93;29.23;;;3.40;99.90;;;;;;4975008;28;20676;-75
2021/12/15 04:49:47;;;;;;;64.53;27.57;;;3.30;99.90;;;;;;4992309;28;20227;-74
2021/12/15 04:52:15;;;;;;;57.97;26.10;;;3.40;99.90;;;;;;4994977;28;20282;-74
2021/12/15 04:54:41;;;;;;;68.87;27.03;;;3.30;99.90;;;;;;4977579;28;20175;-74
2021/12/15 04:57:07;;;;;;;60.97;26.60;;;3.30;99.90;;;;;;4977036;28;20252;-74
2021/12/15 04:59:33;;;;;;;63.57;27.63;;;3.30;99.90;;;;;;4978407;28;20192;-74
2021/12/15 05:01:59;;;;;;;56.87;26.33;;;3.30;99.90;;;;;;4983076;28;20214;-74
2021/12/15 05:04:26;;;;;;;58.67;26.30;;;3.30;99.90;;;;;;4991234;28;20184;-74
2021/12/15 05:06:52;;;;;;;61.57;26.83;;;3.30;99.90;;;;;;5024930;23;20225;-74
2021/12/15 05:09:18;;;;;;;59.37;27.10;;;3.30;99.90;;;;;;5014212;28;20653;-74
2021/12/15 05:11:47;;;;;;;56.03;25.63;;;3.30;99.90;;;;;;5014241;28;20180;-75
2021/12/15 05:14:13;;;;;;;59.37;26.60;;;3.20;99.90;;;;;;5015560;28;20180;-74
2021/12/15 05:16:39;;;;;;;58.00;26.17;;;3.30;99.90;;;;;;5015266;28;20629;-75
2021/12/15 05:19:04;;;;;;;63.83;27.93;;;3.40;99.90;;;;;;4998253;28;20200;-75
2021/12/15 05:21:31;;;;;;;60.73;26.83;;;3.40;99.90;;;;;;5004771;28;20179;-74
2021/12/15 05:24:01;;;;;;;56.23;26.77;;;3.40;99.90;;;;;;5035118;28;20695;-74
2021/12/15 05:26:29;;;;;;;63.23;27.77;;;3.50;99.90;;;;;;5035028;28;20176;-74
2021/12/15 05:28:55;;;;;;;61.27;27.73;;;3.40;99.90;;;;;;5033733;28;20180;-74
2021/12/15 05:31:21;;;;;;;55.77;25.60;;;3.40;99.90;;;;;;4995945;28;20211;-74
2021/12/15 05:33:47;;;;;;;69.07;28.23;;;3.50;99.90;;;;;;5014569;28;20172;-74
2021/12/15 05:36:12;;;;;;;62.53;27.90;;;3.50;99.90;;;;;;4996891;28;20640;-74
2021/12/15 05:38:38;;;;;;;63.47;26.33;;;3.40;99.90;;;;;;5014372;28;20550;-74
2021/12/15 05:41:04;;;;;;;64.77;26.53;;;3.40;99.90;;;;;;5014225;28;20540;-74
2021/12/15 05:43:29;;;;;;;61.50;26.33;;;3.60;99.90;;;;;;5014316;28;20168;-74
2021/12/15 05:45:55;;;;;;;61.03;26.60;;;3.50;99.90;;;;;;5013131;28;20178;-75
2021/12/15 05:48:21;;;;;;;56.50;25.13;;;3.60;99.90;;;;;;5013894;28;20204;-74
2021/12/15 05:50:49;;;;;;;58.93;25.27;;;3.50;99.90;;;;;;4996078;28;20709;-75
2021/12/15 05:53:15;;;;;;;60.17;26.23;;;3.50;99.90;;;;;;5014351;28;20175;-75
2021/12/15 05:55:42;;;;;;;56.67;25.00;;;3.60;99.90;;;;;;5014439;28;20244;-74
2021/12/15 05:58:08;;;;;;;62.60;24.27;;;3.50;99.90;;;;;;4996657;28;20239;-75
2021/12/15 06:00:37;;;;;;;56.27;23.47;;;3.40;99.90;;;;;;5013169;28;20806;-75
2021/12/15 06:03:05;;;;;;;57.47;25.80;;;3.50;99.90;;;;;;5013406;28;20234;-75
2021/12/15 06:05:31;;;;;;;54.30;23.60;;;3.50;99.90;;;;;;5014204;28;20639;-75
2021/12/15 06:07:57;;;;;;;55.27;25.37;;;3.50;99.90;;;;;;5010321;28;20232;-74
2021/12/15 06:10:25;;;;;;;52.50;25.20;;;3.50;99.90;;;;;;4995238;28;20230;-74
2021/12/15 06:12:51;;;;;;;52.03;23.70;;;3.60;99.90;;;;;;5008282;28;20554;-76
2021/12/15 06:15:23;;;;;;;55.53;25.80;;;3.60;99.90;;;;;;5012807;28;20171;-75
2021/12/15 06:17:51;;;;;;;56.20;24.83;;;3.50;99.90;;;;;;4981109;28;20204;-75
2021/12/15 06:20:17;;;;;;;61.47;27.20;;;3.60;99.90;;;;;;4995997;28;20203;-75
2021/12/15 06:22:45;;;;;;;60.87;25.60;;;3.50;99.90;;;;;;5009497;28;20177;-76
2021/12/15 06:25:11;;;;;;;60.27;24.93;;;3.50;99.90;;;;;;4997564;28;20177;-75
2021/12/15 06:27:37;;;;;;;58.00;25.00;;;3.50;99.90;;;;;;5011618;28;20195;-75
2021/12/15 06:30:04;;;;;;;54.60;24.73;;;3.50;99.90;;;;;;5014436;28;20543;-75
2021/12/15 06:32:30;;;;;;;61.90;26.30;;;3.50;99.90;;;;;;5013883;28;20175;-75
2021/12/15 06:34:56;;;;;;;63.93;27.23;;;3.60;99.90;;;;;;4995632;28;20249;-75
2021/12/15 06:37:22;;;;;;;54.43;25.97;;;3.60;99.90;;;;;;4993170;28;21672;-75
2021/12/15 06:39:47;;;;;;;55.73;23.80;;;3.60;99.90;;;;;;5013301;28;20293;-75
2021/12/15 06:42:13;;;;;;;60.23;25.40;;;3.60;99.90;;;;;;5013606;28;20295;-75
2021/12/15 06:44:41;;;;;;;60.93;24.93;;;3.60;99.90;;;;;;5011685;28;20659;-75
2021/12/15 06:47:33;;;;;;;54.30;24.17;;;3.60;99.90;;;;;;5013863;28;20200;-75
2021/12/15 07:00:34;;;;;;;59.43;25.20;;;3.70;99.90;;;;;;5008959;28;20203;-75
2021/12/15 07:03:01;;;;;;;64.27;26.47;;;3.60;99.90;;;;;;5012861;28;20251;-75
2021/12/15 07:05:28;;;;;;;53.13;24.33;;;3.60;99.90;;;;;;4993587;28;20183;-75
2021/12/15 07:07:55;;;;;;;58.13;25.17;;;3.60;99.90;;;;;;5012785;28;20219;-75
2021/12/15 07:10:27;;;;;;;56.27;25.63;;;3.60;99.90;;;;;;5012882;28;20203;-75
2021/12/15 07:12:54;;;;;;;53.87;24.43;;;3.70;99.90;;;;;;5012883;28;20167;-76
2021/12/15 07:15:20;;;;;;;49.20;23.37;;;3.70;99.90;;;;;;5013103;28;20205;-75
2021/12/15 07:17:49;;;;;;;54.60;24.43;;;3.70;99.90;;;;;;5012471;28;20215;-75
2021/12/15 07:23:07;;;;;;;47.80;23.33;;;3.60;99.90;;;;;;5012914;28;20223;-75
2021/12/15 07:25:33;;;;;;;49.80;23.37;;;4.00;99.90;;;;;;4995614;28;20242;-75
2021/12/15 07:27:59;;;;;;;51.60;24.17;;;3.70;99.90;;;;;;5019161;28;20678;-75
2021/12/15 07:30:26;;;;;;;55.60;26.50;;;3.60;99.90;;;;;;5018121;28;20225;-75
2021/12/15 07:32:52;;;;;;;56.20;26.30;;;3.60;99.90;;;;;;5019217;28;20179;-75
2021/12/15 07:35:19;;;;;;;50.33;24.47;;;3.70;99.90;;;;;;5001619;28;20174;-75
2021/12/15 07:37:46;;;;;;;53.70;23.63;;;3.70;99.90;;;;;;5001397;28;20200;-74
2021/12/15 07:40:19;;;;;;;52.43;24.73;;;3.70;99.90;;;;;;5017996;28;20191;-75
2021/12/15 07:42:56;;;;;;;48.30;23.73;;;3.70;99.90;;;;;;5001133;28;20220;-75
2021/12/15 07:45:24;;;;;;;52.47;24.57;;;3.70;99.90;;;;;;5000308;28;20629;-74
2021/12/15 07:47:55;;;;;;;54.53;26.07;;;3.70;99.90;;;;;;5018761;28;20198;-75
2021/12/15 07:50:22;;;;;;;56.13;26.83;;;3.70;99.90;;;;;;5019213;28;20203;-75
2021/12/15 07:52:49;;;;;;;53.50;26.03;;;3.70;99.90;;;;;;5001578;28;20202;-74
2021/12/15 07:55:15;;;;;;;59.67;26.37;;;3.80;99.90;;;;;;5019189;28;20662;-74
2021/12/15 07:57:41;;;;;;;52.17;24.73;;;3.80;99.90;;;;;;5019458;28;20204;-74
2021/12/15 08:00:10;;;;;;;50.13;23.53;;;3.80;99.90;;;;;;5019419;28;20284;-75
2021/12/15 08:02:36;;;;;;;53.13;25.47;;;3.80;99.90;;;;;;5001999;28;20181;-74
2021/12/15 08:05:03;;;;;;;63.10;30.40;;;3.90;99.90;;;;;;5019535;28;20700;-75
2021/12/15 08:07:28;;;;;;;61.43;27.90;;;3.80;99.90;;;;;;5001621;28;20221;-74
2021/12/15 08:09:54;;;;;;;66.23;27.93;;;3.80;99.90;;;;;;5001829;28;20677;-74
2021/12/15 08:12:20;;;;;;;61.37;28.13;;;3.70;99.90;;;;;;5012962;28;20186;-73
2021/12/15 08:14:46;;;;;;;71.80;29.43;;;3.60;99.90;;;;;;5010058;28;20181;-72
2021/12/15 08:17:12;;;;;;;66.30;30.33;;;3.60;99.90;;;;;;5019174;28;20259;-73
2021/12/15 08:19:37;;;;;;;67.87;30.70;;;3.50;99.90;;;;;;5002410;28;20199;-74
2021/12/15 08:22:03;;;;;;;72.33;32.50;;;3.60;99.90;;;;;;5020261;28;20623;-73
2021/12/15 08:24:29;;;;;;;71.20;28.50;;;3.60;99.90;;;;;;5019578;28;20171;-74
2021/12/15 08:26:55;;;;;;;69.10;28.50;;;3.60;99.90;;;;;;5001904;28;20253;-73
2021/12/15 08:29:20;;;;;;;67.27;28.60;;;3.60;99.90;;;;;;5019411;28;20673;-73
2021/12/15 08:31:46;;;;;;;69.63;26.43;;;3.50;99.90;;;;;;5019445;28;20198;-72
2021/12/15 08:34:12;;;;;;;60.30;26.50;;;3.60;99.90;;;;;;5019364;28;20172;-73
2021/12/15 08:36:39;;;;;;;68.13;27.83;;;3.60;99.90;;;;;;5018778;28;20195;-72
2021/12/15 08:39:07;;;;;;;74.53;31.50;;;3.70;99.90;;;;;;5015142;28;20204;-74
2021/12/15 08:41:33;;;;;;;73.93;30.17;;;3.60;99.90;;;;;;5016294;28;20171;-73
2021/12/15 08:44:00;;;;;;;81.63;33.33;;;3.60;99.90;;;;;;5015849;28;20184;-73
2021/12/15 08:46:38;;;;;;;75.43;29.00;;;3.60;99.90;;;;;;5015688;28;20174;-73
2021/12/15 08:49:05;;;;;;;88.50;41.47;;;3.70;99.90;;;;;;5015503;28;20174;-72
2021/12/15 08:51:32;;;;;;;68.87;29.10;;;3.60;99.90;;;;;;5014957;28;20225;-73
2021/12/15 08:54:05;;;;;;;72.63;27.77;;;3.60;99.90;;;;;;5015812;28;20175;-73
2021/12/15 08:56:33;;;;;;;84.30;38.33;;;3.60;99.90;;;;;;4997910;28;20221;-71
2021/12/15 08:58:59;;;;;;;65.57;28.50;;;3.60;99.90;;;;;;4997217;28;20314;-74
2021/12/15 09:01:25;;;;;;;65.63;27.27;;;3.60;99.90;;;;;;4998168;28;20171;-73
2021/12/15 09:03:51;;;;;;;68.93;27.47;;;3.70;99.90;;;;;;4997628;28;20176;-74
2021/12/15 09:06:17;;;;;;;57.97;23.70;;;3.70;99.90;;;;;;4997213;28;20168;-74
2021/12/15 09:08:44;;;;;;;56.07;23.10;;;3.70;99.90;;;;;;5014962;28;20178;-74
2021/12/15 09:11:14;;;;;;;55.23;23.00;;;3.80;99.90;;;;;;5015068;28;20176;-74
2021/12/15 09:13:42;;;;;;;60.23;24.53;;;3.70;99.90;;;;;;4997201;28;20171;-74
2021/12/15 09:16:10;;;;;;;48.10;20.93;;;3.80;99.90;;;;;;5014510;28;20163;-75
2021/12/15 09:18:37;;;;;;;43.80;21.23;;;3.80;99.90;;;;;;5014987;28;20199;-76
2021/12/15 09:21:04;;;;;;;42.70;18.10;;;3.80;99.90;;;;;;5014626;28;20199;-75
2021/12/15 09:23:30;;;;;;;32.70;17.20;;;3.80;99.90;;;;;;4997254;28;20646;-74
2021/12/15 09:25:57;;;;;;;27.37;16.07;;;3.90;99.90;;;;;;5015119;28;20250;-74
2021/12/15 09:28:24;;;;;;;23.17;13.50;;;3.90;99.90;;;;;;5015091;28;20195;-75
2021/12/15 09:30:51;;;;;;;24.83;13.57;;;3.80;99.90;;;;;;5014901;28;20254;-74
2021/12/15 09:33:21;;;;;;;20.87;12.53;;;3.80;99.90;;;;;;5014321;28;20180;-74
2021/12/15 09:35:47;;;;;;;21.17;13.13;;;3.80;99.90;;;;;;5014537;28;20169;-74
2021/12/15 09:38:15;;;;;;;22.17;14.27;;;3.90;99.90;;;;;;5014248;28;20600;-75
2021/12/15 09:40:41;;;;;;;21.83;13.23;;;3.90;99.90;;;;;;5014280;28;20195;-74
2021/12/15 09:43:09;;;;;;;21.90;12.80;;;3.90;99.90;;;;;;5014842;28;20170;-74
2021/12/15 09:45:50;;;;;;;39.40;20.50;;;3.90;99.90;;;;;;4997317;28;20199;-75
2021/12/15 10:10:40;;;;;;;31.90;17.73;;;3.90;99.90;;;;;;5005344;28;20215;-74
2021/12/15 10:18:15;;;;;;;16.63;11.97;;;3.90;99.90;;;;;;5014163;28;20210;-75
2021/12/15 10:20:41;;;;;;;15.37;8.73;;;4.00;99.90;;;;;;5014434;28;20230;-74
2021/12/15 10:23:12;;;;;;;13.50;9.73;;;4.00;99.90;;;;;;5015256;28;20176;-75
2021/12/15 10:25:47;;;;;;;13.33;8.87;;;4.00;99.90;;;;;;5007992;28;20184;-75
2021/12/15 10:28:16;;;;;;;15.90;10.73;;;4.00;99.90;;;;;;5015077;28;20215;-74
2021/12/15 10:30:48;;;;;;;10.30;8.50;;;4.00;99.90;;;;;;5011330;28;20176;-75
2021/12/15 10:33:19;;;;;;;21.00;13.90;;;4.00;99.90;;;;;;5013924;28;20617;-74
2021/12/15 10:35:58;;;;;;;10.73;7.30;;;4.00;99.90;;;;;;5013625;28;20195;-74
2021/12/15 10:38:45;;;;;;;12.10;7.43;;;4.00;99.90;;;;;;4996463;28;20683;-75
2021/12/15 10:41:16;;;;;;;11.10;8.17;;;4.00;99.90;;;;;;4993829;28;20178;-75
2021/12/15 10:43:52;;;;;;;11.13;8.20;;;4.00;99.90;;;;;;5006724;28;20168;-75
2021/12/15 10:46:29;;;;;;;22.80;13.80;;;4.00;99.90;;;;;;4999747;28;20202;-75
2021/12/15 10:48:58;;;;;;;11.33;8.20;;;4.00;99.90;;;;;;5005624;28;20248;-75
2021/12/15 10:51:47;;;;;;;15.27;9.50;;;3.90;99.90;;;;;;5013453;28;20177;-75
2021/12/15 10:54:21;;;;;;;11.90;8.70;;;4.00;99.90;;;;;;5006523;28;20193;-75
2021/12/15 10:57:01;;;;;;;16.77;12.43;;;4.00;99.90;;;;;;5010353;28;20191;-74
2021/12/15 10:59:30;;;;;;;9.67;7.07;;;4.00;99.90;;;;;;5011283;28;20191;-74
2021/12/15 11:02:01;;;;;;;7.87;6.87;;;4.10;99.90;;;;;;5012990;28;20187;-75
2021/12/15 11:04:36;;;;;;;8.77;6.43;;;4.20;99.90;;;;;;5013677;28;20168;-75
2021/12/15 11:07:21;;;;;;;9.70;7.33;;;4.10;99.90;;;;;;5012377;28;20682;-74
2021/12/15 11:09:53;;;;;;;11.40;6.37;;;4.10;99.90;;;;;;5007064;28;20212;-75
2021/12/15 11:12:58;;;;;;;25.57;16.10;;;4.10;99.90;;;;;;5010423;28;20175;-74
2021/12/15 11:15:36;;;;;;;11.70;7.13;;;4.00;99.90;;;;;;5006920;28;20309;-75
2021/12/15 11:18:09;;;;;;;16.83;11.00;;;4.10;99.90;;;;;;5002714;28;20201;-75
2021/12/15 11:20:54;;;;;;;13.57;8.73;;;4.10;99.90;;;;;;5006938;28;20200;-75
2021/12/15 11:23:23;;;;;;;11.57;8.37;;;4.10;99.90;;;;;;4993723;28;20184;-75
2021/12/15 11:25:56;;;;;;;11.93;8.53;;;4.10;99.90;;;;;;5040838;22;20342;-75
2021/12/15 11:28:27;;;;;;;12.53;7.97;;;4.10;99.90;;;;;;4992014;28;20554;-75
2021/12/15 11:30:58;;;;;;;13.20;7.97;;;4.20;99.90;;;;;;4974399;28;20183;-73
2021/12/15 11:33:37;;;;;;;12.00;8.40;;;4.20;99.90;;;;;;4992287;28;20212;-74
2021/12/15 11:36:10;;;;;;;12.00;7.57;;;4.20;99.90;;;;;;4984951;28;20214;-73
2021/12/15 11:38:48;;;;;;;12.20;8.40;;;4.30;99.90;;;;;;4986647;28;20180;-73
2021/12/15 11:41:22;;;;;;;11.10;8.27;;;4.30;99.90;;;;;;4971968;28;20557;-74
2021/12/15 11:43:55;;;;;;;12.50;8.40;;;4.30;99.90;;;;;;4991782;28;20191;-75
2021/12/15 11:46:30;;;;;;;15.63;9.80;;;4.30;99.90;;;;;;4993859;28;20263;-75
2021/12/15 11:49:07;;;;;;;12.40;8.83;;;4.30;99.90;;;;;;4993281;28;20179;-75
2021/12/15 11:51:45;;;;;;;17.23;10.00;;;4.30;99.90;;;;;;4982403;28;20572;-74
2021/12/15 11:54:27;;;;;;;20.57;11.63;;;4.30;99.90;;;;;;4993392;28;20189;-76
2021/12/15 11:57:14;;;;;;;17.57;11.00;;;4.30;99.90;;;;;;4993888;28;20202;-74
2021/12/15 11:59:44;;;;;;;16.30;10.00;;;4.30;99.90;;;;;;4993561;28;20197;-75
2021/12/15 12:02:31;;;;;;;16.37;10.37;;;4.40;99.90;;;;;;4976386;28;20179;-75
2021/12/15 12:05:02;;;;;;;16.20;10.17;;;4.40;99.90;;;;;;4993964;28;20197;-75
2021/12/15 12:07:34;;;;;;;14.97;10.03;;;4.40;99.90;;;;;;4993661;28;20230;-75
2021/12/15 12:10:07;;;;;;;16.07;10.17;;;4.50;99.90;;;;;;4993667;28;20187;-75
2021/12/15 12:12:39;;;;;;;16.27;10.07;;;4.50;99.90;;;;;;4995434;28;20178;-75
2021/12/15 12:15:09;;;;;;;14.03;10.17;;;4.40;99.90;;;;;;4997233;28;20275;-75
2021/12/15 12:17:39;;;;;;;15.57;9.93;;;4.50;99.90;;;;;;4997161;28;20184;-75
2021/12/15 12:20:06;;;;;;;15.83;10.53;;;4.50;99.90;;;;;;4996599;28;20668;-75
2021/12/15 12:22:34;;;;;;;16.93;10.73;;;4.50;99.90;;;;;;4979789;28;20635;-75
2021/12/15 12:25:03;;;;;;;16.30;11.20;;;4.50;99.90;;;;;;4996641;28;20223;-75
2021/12/15 12:27:31;;;;;;;14.87;9.43;;;4.50;99.90;;;;;;4997297;28;20175;-74
2021/12/15 12:29:58;;;;;;;10.10;8.20;;;4.50;99.90;;;;;;4979448;28;20185;-74
2021/12/15 12:32:25;;;;;;;9.70;7.57;;;4.50;99.90;;;;;;4997168;28;20539;-77
2021/12/15 12:34:52;;;;;;;10.93;7.37;;;4.50;99.90;;;;;;4997239;28;20559;-76
2021/12/15 12:37:18;;;;;;;9.27;6.97;;;4.50;99.90;;;;;;4996748;28;20183;-76
2021/12/15 12:39:53;;;;;;;11.60;7.87;;;4.50;99.90;;;;;;4996249;28;20231;-76
2021/12/15 12:42:41;;;;;;;9.87;7.60;;;4.50;99.90;;;;;;4997141;28;20230;-76
2021/12/15 12:45:19;;;;;;;10.80;7.37;;;4.50;99.90;;;;;;4996828;28;20192;-76
2021/12/15 12:48:04;;;;;;;12.83;8.90;;;4.50;99.90;;;;;;4979256;28;20180;-76
2021/12/15 12:59:49;;;;;;;15.27;8.60;;;4.60;99.90;;;;;;4996805;28;20195;-76
2021/12/15 13:02:38;;;;;;;11.27;7.97;;;4.70;99.90;;;;;;4996306;28;20172;-76
2021/12/15 13:05:06;;;;;;;12.63;9.57;;;4.60;99.90;;;;;;4999190;28;20227;-76
2021/12/15 13:08:03;;;;;;;14.13;9.23;;;4.60;99.90;;;;;;4996546;28;20177;-76
2021/12/15 13:10:49;;;;;;;13.10;9.23;;;4.50;99.90;;;;;;4963818;28;20246;-76
2021/12/15 13:13:20;;;;;;;11.37;7.80;;;4.60;99.90;;;;;;4996542;28;20207;-76
2021/12/15 13:16:04;;;;;;;15.83;10.60;;;4.60;99.90;;;;;;4996236;28;20283;-75
2021/12/15 13:18:55;;;;;;;14.47;9.63;;;4.60;99.90;;;;;;4995661;28;20181;-76
2021/12/15 13:21:46;;;;;;;12.97;9.67;;;4.60;99.90;;;;;;4996541;28;20191;-77
2021/12/15 13:30:53;;;;;;;14.00;9.20;;;4.70;99.90;;;;;;4996093;28;20220;-76
2021/12/15 13:33:41;;;;;;;13.67;9.77;;;4.60;99.90;;;;;;4990681;28;20193;-76
2021/12/15 13:36:14;;;;;;;14.40;10.23;;;4.60;99.90;;;;;;4995895;28;20297;-77
2021/12/15 13:38:55;;;;;;;15.33;10.27;;;4.60;99.90;;;;;;4995804;28;20721;-76
2021/12/15 13:41:41;;;;;;;14.70;10.50;;;4.60;99.90;;;;;;4995924;28;20186;-76
2021/12/15 13:44:37;;;;;;;18.07;12.30;;;4.60;99.90;;;;;;4995529;28;20658;-76
2021/12/15 13:47:09;;;;;;;17.27;11.07;;;4.60;99.90;;;;;;4977988;28;20663;-76
2021/12/15 13:49:56;;;;;;;16.80;10.90;;;4.60;99.90;;;;;;4995632;28;20651;-75
2021/12/15 13:52:34;;;;;;;15.80;10.60;;;4.70;99.90;;;;;;4995494;28;20185;-75
2021/12/15 13:55:22;;;;;;;16.93;10.93;;;4.70;99.90;;;;;;4995674;28;20227;-75
2021/12/15 13:58:09;;;;;;;15.23;10.60;;;4.70;99.90;;;;;;4976998;28;20275;-75
2021/12/15 14:00:34;;;;;;;13.50;9.97;;;4.70;99.90;;;;;;4977534;28;20763;-75
2021/12/15 14:03:11;;;;;;;18.57;11.10;;;4.70;99.90;;;;;;4995276;28;20201;-75
2021/12/15 14:06:08;;;;;;;17.93;11.40;;;4.60;99.90;;;;;;4995602;28;20603;-75
2021/12/15 14:08:53;;;;;;;15.77;11.03;;;4.70;99.90;;;;;;4995303;28;20181;-75
2021/12/15 14:11:27;;;;;;;17.90;11.33;;;4.60;99.90;;;;;;4995104;28;20176;-75
2021/12/15 14:13:53;;;;;;;19.73;11.63;;;4.60;99.90;;;;;;4995264;28;20174;-75
2021/12/15 14:16:34;;;;;;;17.20;11.57;;;4.60;99.90;;;;;;4978093;28;20187;-75
2021/12/15 14:19:03;;;;;;;19.00;12.10;;;4.70;99.90;;;;;;4977396;28;20229;-75
2021/12/15 14:21:31;;;;;;;21.67;12.70;;;4.70;99.90;;;;;;4977657;28;20222;-76
2021/12/15 14:23:58;;;;;;;22.17;13.03;;;4.70;99.90;;;;;;4977028;28;20217;-76
2021/12/15 14:26:30;;;;;;;21.27;12.83;;;4.70;99.90;;;;;;4994960;28;20215;-75